Time;durP1;ratioP1;P1;durP2;ratioP2;P2;SDS_P1;SDS_P2;PMS_P1;PMS_P2;Temp;Humidity;BMP_temperature;BMP_pressure;BME280_temperature;BME280_humidity;BME280_pressure;Samples;Min_cycle;Max_cycle;Signal;HPM_P1;HPM_P2
2023/08/08 00:01:22;;;;;;;7.93;3.05;;;13.90;99.90;;;;;;5112612;28;20047;-57
2023/08/08 00:03:47;;;;;;;5.88;2.67;;;13.90;99.90;;;;;;5085338;28;20109;-56
2023/08/08 00:06:13;;;;;;;4.30;2.50;;;13.90;99.90;;;;;;5100026;28;20051;-59
2023/08/08 00:08:39;;;;;;;6.78;2.92;;;13.80;99.90;;;;;;5112926;28;20036;-57
2023/08/08 00:11:05;;;;;;;6.25;2.83;;;13.80;99.90;;;;;;5109864;28;20043;-59
2023/08/08 00:13:31;;;;;;;7.50;2.40;;;13.80;99.90;;;;;;5112005;28;20485;-55
2023/08/08 00:15:56;;;;;;;3.25;2.25;;;13.80;99.90;;;;;;5096782;28;20051;-58
2023/08/08 00:18:22;;;;;;;4.28;2.70;;;13.80;99.90;;;;;;5112619;28;20511;-59
2023/08/08 00:20:48;;;;;;;6.43;3.03;;;13.80;99.90;;;;;;5113388;28;20044;-53
2023/08/08 00:23:13;;;;;;;5.32;2.75;;;13.80;99.90;;;;;;5112665;28;20036;-57
2023/08/08 00:25:39;;;;;;;7.35;2.88;;;13.80;99.90;;;;;;5112975;28;20056;-56
2023/08/08 00:28:05;;;;;;;7.43;3.17;;;13.80;99.90;;;;;;5114142;28;20059;-54
2023/08/08 00:30:31;;;;;;;5.75;2.78;;;13.80;99.90;;;;;;5115045;28;20143;-58
2023/08/08 00:32:56;;;;;;;5.60;2.90;;;13.80;99.90;;;;;;5113787;28;20104;-56
2023/08/08 00:35:22;;;;;;;4.63;2.63;;;13.80;99.90;;;;;;5112832;27;20076;-58
2023/08/08 00:37:48;;;;;;;10.45;3.08;;;13.70;99.90;;;;;;5096045;28;20065;-54
2023/08/08 00:40:14;;;;;;;6.22;2.83;;;13.70;99.90;;;;;;5113457;28;20036;-58
2023/08/08 00:42:39;;;;;;;9.77;3.30;;;13.70;99.90;;;;;;5114129;28;20081;-58
2023/08/08 00:45:06;;;;;;;6.70;2.85;;;13.70;99.90;;;;;;5114323;28;20032;-55
2023/08/08 00:47:33;;;;;;;5.72;2.90;;;13.60;99.90;;;;;;5096189;28;20040;-55
2023/08/08 00:50:00;;;;;;;5.45;3.10;;;13.60;99.90;;;;;;5114577;28;20525;-58
2023/08/08 00:52:25;;;;;;;7.00;3.05;;;13.60;99.90;;;;;;5113840;28;20048;-57
2023/08/08 00:54:52;;;;;;;4.28;3.13;;;13.50;99.90;;;;;;5111409;28;20429;-59
2023/08/08 00:57:19;;;;;;;5.40;2.75;;;13.50;99.90;;;;;;5112519;28;20035;-59
2023/08/08 00:59:44;;;;;;;9.23;3.42;;;13.50;99.90;;;;;;5112315;28;20039;-56
2023/08/08 01:02:11;;;;;;;6.15;3.17;;;13.50;99.90;;;;;;5111748;28;20040;-58
2023/08/08 01:04:38;;;;;;;10.00;3.47;;;13.50;99.90;;;;;;5105891;28;20139;-58
2023/08/08 01:07:23;;;;;;;7.95;3.10;;;13.50;99.90;;;;;;5110745;27;20046;-58
2023/08/08 01:10:04;;;;;;;6.63;2.97;;;13.50;99.90;;;;;;5110819;28;20477;-59
2023/08/08 01:12:30;;;;;;;5.95;3.05;;;13.50;99.90;;;;;;5113237;28;20479;-59
2023/08/08 01:14:57;;;;;;;8.57;3.13;;;13.40;99.90;;;;;;5100304;28;20047;-58
2023/08/08 01:17:25;;;;;;;5.43;2.83;;;13.40;99.90;;;;;;5113750;28;20040;-54
2023/08/08 01:19:51;;;;;;;6.00;3.22;;;13.40;99.90;;;;;;5093256;28;20055;-58
2023/08/08 01:22:25;;;;;;;7.60;3.30;;;13.40;99.90;;;;;;5110622;28;20067;-58
2023/08/08 01:24:52;;;;;;;7.18;3.28;;;13.40;99.90;;;;;;5090782;28;20047;-57
2023/08/08 01:27:17;;;;;;;6.20;3.22;;;13.40;99.90;;;;;;5109602;28;20565;-58
2023/08/08 01:29:43;;;;;;;7.63;3.20;;;13.40;99.90;;;;;;5112049;28;20047;-59
2023/08/08 01:32:10;;;;;;;7.47;3.38;;;13.40;99.90;;;;;;5114566;28;20066;-58
2023/08/08 01:34:37;;;;;;;7.68;3.47;;;13.40;99.90;;;;;;5113602;28;20075;-59
2023/08/08 01:37:06;;;;;;;7.35;3.05;;;13.40;99.90;;;;;;5113390;28;20039;-58
2023/08/08 01:39:33;;;;;;;5.63;2.95;;;13.40;99.90;;;;;;5101690;28;20039;-56
2023/08/08 01:42:01;;;;;;;8.60;2.97;;;13.40;99.90;;;;;;5113227;28;20044;-57
2023/08/08 01:44:28;;;;;;;7.35;3.13;;;13.40;99.90;;;;;;5089848;28;20043;-58
2023/08/08 01:46:54;;;;;;;7.22;3.38;;;13.40;99.90;;;;;;5111377;28;20043;-59
2023/08/08 01:49:20;;;;;;;9.13;3.42;;;13.40;99.90;;;;;;5113051;28;20044;-57
2023/08/08 01:51:46;;;;;;;5.57;3.17;;;13.40;99.90;;;;;;5107994;28;20066;-57
2023/08/08 01:54:11;;;;;;;8.13;3.05;;;13.40;99.90;;;;;;5110278;28;20414;-56
2023/08/08 01:56:37;;;;;;;4.90;3.05;;;13.50;99.90;;;;;;5112029;28;20050;-55
2023/08/08 01:59:03;;;;;;;7.43;3.00;;;13.50;99.90;;;;;;5111232;28;20541;-57
2023/08/08 02:01:28;;;;;;;6.78;3.03;;;13.50;99.90;;;;;;5110391;28;20082;-58
2023/08/08 02:03:54;;;;;;;6.05;2.90;;;13.50;99.90;;;;;;5089007;28;20054;-58
2023/08/08 02:06:20;;;;;;;5.75;3.30;;;13.50;99.90;;;;;;5106623;28;20042;-58
2023/08/08 02:08:46;;;;;;;8.32;3.22;;;13.50;99.90;;;;;;5108936;28;20404;-59
2023/08/08 02:11:11;;;;;;;6.18;3.08;;;13.60;99.90;;;;;;5110437;28;20071;-54
2023/08/08 02:13:37;;;;;;;8.38;2.83;;;13.60;99.90;;;;;;5110324;28;20039;-59
2023/08/08 02:16:03;;;;;;;7.30;2.85;;;13.60;99.90;;;;;;5091805;28;20051;-58
2023/08/08 02:18:29;;;;;;;7.97;2.97;;;13.60;99.90;;;;;;5111928;28;20040;-55
2023/08/08 02:20:55;;;;;;;11.02;3.10;;;13.60;99.90;;;;;;5112681;28;20041;-58
2023/08/08 02:23:20;;;;;;;6.13;2.75;;;13.70;99.90;;;;;;5097366;28;20054;-55
2023/08/08 02:25:46;;;;;;;5.68;2.78;;;13.70;99.90;;;;;;5110479;28;20052;-59
2023/08/08 02:28:12;;;;;;;13.73;3.13;;;13.70;99.90;;;;;;5094402;28;20519;-58
2023/08/08 02:30:38;;;;;;;9.32;3.78;;;13.70;99.90;;;;;;5093808;28;20074;-58
2023/08/08 02:33:04;;;;;;;9.65;3.58;;;13.70;99.90;;;;;;5111132;28;20039;-58
2023/08/08 02:35:30;;;;;;;7.65;3.30;;;13.70;99.90;;;;;;5110482;28;20591;-58
2023/08/08 02:37:56;;;;;;;7.15;3.28;;;13.70;99.90;;;;;;5092780;28;20032;-56
2023/08/08 02:40:23;;;;;;;7.97;3.30;;;13.70;99.90;;;;;;5113390;28;20104;-56
2023/08/08 02:42:49;;;;;;;5.82;3.13;;;13.70;99.90;;;;;;5113324;28;20036;-56
2023/08/08 02:45:15;;;;;;;10.45;3.53;;;13.70;99.90;;;;;;5093286;28;20103;-58
2023/08/08 02:47:41;;;;;;;8.25;3.50;;;13.70;99.90;;;;;;5111748;28;20051;-57
2023/08/08 02:50:07;;;;;;;5.22;2.70;;;13.70;99.90;;;;;;5111426;28;20409;-58
2023/08/08 02:52:33;;;;;;;9.32;3.10;;;13.70;99.90;;;;;;5093295;28;20050;-58
2023/08/08 02:54:59;;;;;;;7.50;3.47;;;13.70;99.90;;;;;;5107068;28;20091;-58
2023/08/08 02:57:24;;;;;;;7.05;3.20;;;13.70;99.90;;;;;;5091777;28;20058;-57
2023/08/08 02:59:50;;;;;;;12.60;2.95;;;13.70;99.90;;;;;;5112106;28;20040;-57
2023/08/08 03:02:16;;;;;;;6.68;2.80;;;13.70;99.90;;;;;;5094383;28;20043;-57
2023/08/08 03:04:41;;;;;;;11.32;3.13;;;13.70;99.90;;;;;;5110327;28;20053;-58
2023/08/08 03:07:07;;;;;;;6.30;2.55;;;13.70;99.90;;;;;;5109551;28;20034;-57
2023/08/08 03:09:33;;;;;;;6.47;2.60;;;13.70;99.90;;;;;;5110074;28;20036;-56
2023/08/08 03:11:59;;;;;;;8.48;2.63;;;13.70;99.90;;;;;;5110349;27;20044;-58
2023/08/08 03:14:24;;;;;;;10.73;2.95;;;13.70;99.90;;;;;;5112139;27;20066;-58
2023/08/08 03:16:50;;;;;;;7.15;2.28;;;13.70;99.90;;;;;;5113315;28;20044;-58
2023/08/08 03:19:16;;;;;;;6.55;2.67;;;13.70;99.90;;;;;;5116523;28;20070;-58
2023/08/08 03:21:42;;;;;;;7.13;2.75;;;13.70;99.90;;;;;;5113190;27;20039;-57
2023/08/08 03:24:07;;;;;;;8.35;2.35;;;13.60;99.90;;;;;;5116711;28;20040;-58
2023/08/08 03:26:33;;;;;;;5.70;2.90;;;13.60;99.90;;;;;;5114762;28;20055;-58
2023/08/08 03:28:59;;;;;;;4.45;2.00;;;13.60;99.90;;;;;;5115439;28;20036;-56
2023/08/08 03:31:26;;;;;;;4.50;1.90;;;13.60;99.90;;;;;;5113260;28;20107;-58
2023/08/08 03:33:51;;;;;;;5.65;1.92;;;13.60;99.90;;;;;;5093626;28;20054;-57
2023/08/08 03:36:17;;;;;;;3.70;1.92;;;13.50;99.90;;;;;;5095916;28;20035;-55
2023/08/08 03:38:46;;;;;;;5.55;2.17;;;13.50;99.90;;;;;;5113179;27;20097;-58
2023/08/08 03:41:13;;;;;;;4.85;2.00;;;13.50;99.90;;;;;;5114477;27;20497;-57
2023/08/08 03:43:39;;;;;;;5.40;1.80;;;13.50;99.90;;;;;;5115813;28;20085;-58
2023/08/08 03:46:05;;;;;;;4.60;2.20;;;13.50;99.90;;;;;;5113779;27;20031;-56
2023/08/08 03:48:31;;;;;;;8.93;1.98;;;13.40;99.90;;;;;;5113402;28;20077;-56
2023/08/08 03:50:57;;;;;;;6.07;2.10;;;13.40;99.90;;;;;;5114602;28;20707;-58
2023/08/08 03:53:23;;;;;;;4.22;1.95;;;13.40;99.90;;;;;;5114649;28;20067;-56
2023/08/08 03:55:48;;;;;;;5.20;2.03;;;13.40;99.90;;;;;;5097104;28;20044;-58
2023/08/08 03:58:14;;;;;;;5.70;1.80;;;13.30;99.90;;;;;;5113824;28;20060;-56
2023/08/08 04:00:45;;;;;;;4.82;1.80;;;13.30;99.90;;;;;;5094074;28;20421;-55
2023/08/08 04:03:14;;;;;;;4.47;1.85;;;13.30;99.90;;;;;;5115217;28;20045;-56
2023/08/08 04:05:41;;;;;;;6.18;1.80;;;13.30;99.90;;;;;;5113501;27;20583;-55
2023/08/08 04:08:07;;;;;;;4.70;1.98;;;13.20;99.90;;;;;;5114700;28;20057;-58
2023/08/08 04:10:33;;;;;;;4.80;1.70;;;13.20;99.90;;;;;;5114783;28;20032;-57
2023/08/08 04:12:58;;;;;;;3.60;1.80;;;13.20;99.90;;;;;;5112626;28;20064;-57
2023/08/08 04:15:24;;;;;;;6.63;1.77;;;13.20;99.90;;;;;;5114509;27;20046;-58
2023/08/08 04:17:50;;;;;;;4.97;1.70;;;13.20;99.90;;;;;;5110435;28;20050;-58
2023/08/08 04:20:15;;;;;;;8.40;1.70;;;13.10;99.90;;;;;;5093226;28;20036;-56
2023/08/08 04:22:41;;;;;;;6.03;2.13;;;13.10;99.90;;;;;;5108526;27;20067;-58
2023/08/08 04:25:07;;;;;;;7.30;2.10;;;13.10;99.90;;;;;;5110927;28;20075;-57
2023/08/08 04:27:33;;;;;;;4.07;1.83;;;13.10;99.90;;;;;;5115288;28;20043;-54
2023/08/08 04:29:59;;;;;;;3.55;1.80;;;13.10;99.90;;;;;;5113490;28;20469;-57
2023/08/08 04:32:25;;;;;;;4.30;1.80;;;13.10;99.90;;;;;;5109424;28;20039;-57
2023/08/08 04:34:50;;;;;;;7.47;2.28;;;13.10;99.90;;;;;;5111885;28;20050;-59
2023/08/08 04:37:16;;;;;;;6.07;2.08;;;13.10;99.90;;;;;;5110289;28;20651;-58
2023/08/08 04:39:42;;;;;;;5.68;1.83;;;13.10;99.90;;;;;;5111762;28;20061;-58
2023/08/08 04:42:07;;;;;;;6.70;2.00;;;13.20;99.90;;;;;;5111993;28;20056;-56
2023/08/08 04:44:36;;;;;;;7.15;2.10;;;13.20;99.90;;;;;;5111153;28;20035;-58
2023/08/08 04:47:02;;;;;;;4.40;1.60;;;13.20;99.90;;;;;;5104751;28;20064;-58
2023/08/08 04:49:28;;;;;;;8.23;1.90;;;13.20;99.90;;;;;;5109689;28;20042;-56
2023/08/08 04:51:54;;;;;;;6.90;1.83;;;13.30;99.90;;;;;;5111755;27;20043;-59
2023/08/08 04:54:20;;;;;;;6.88;1.70;;;13.30;99.90;;;;;;5112404;28;20324;-58
2023/08/08 04:56:45;;;;;;;6.57;2.03;;;13.40;99.90;;;;;;5091981;28;20035;-58
2023/08/08 04:59:11;;;;;;;6.72;1.75;;;13.40;99.90;;;;;;5111153;28;20379;-56
2023/08/08 05:01:37;;;;;;;6.25;1.63;;;13.50;99.90;;;;;;5109485;28;20044;-59
2023/08/08 05:04:03;;;;;;;5.10;1.77;;;13.50;99.90;;;;;;5109933;28;21104;-59
2023/08/08 05:06:28;;;;;;;5.70;1.77;;;13.60;99.90;;;;;;5094423;28;20040;-59
2023/08/08 05:08:56;;;;;;;4.97;1.67;;;13.60;99.90;;;;;;5110641;28;20040;-59
2023/08/08 05:11:22;;;;;;;3.95;1.60;;;13.60;99.90;;;;;;5092473;28;20054;-56
2023/08/08 05:13:48;;;;;;;4.88;2.05;;;13.70;99.90;;;;;;5111705;28;20032;-56
2023/08/08 05:16:13;;;;;;;5.45;1.83;;;13.70;99.90;;;;;;5098619;28;20028;-58
2023/08/08 05:18:40;;;;;;;7.93;1.60;;;13.70;99.90;;;;;;5113628;28;20066;-59
2023/08/08 05:21:06;;;;;;;7.93;1.77;;;13.80;99.90;;;;;;5111513;28;20040;-58
2023/08/08 05:23:32;;;;;;;4.57;1.90;;;13.80;99.90;;;;;;5111356;28;20050;-58
2023/08/08 05:25:58;;;;;;;7.90;1.95;;;13.80;99.90;;;;;;5081091;28;20051;-58
2023/08/08 05:28:23;;;;;;;6.55;1.73;;;13.80;99.90;;;;;;5110385;28;20052;-56
2023/08/08 05:30:49;;;;;;;4.50;1.67;;;13.80;99.90;;;;;;5111359;28;20042;-55
2023/08/08 05:33:15;;;;;;;4.97;1.38;;;13.80;99.90;;;;;;5112954;28;20039;-58
2023/08/08 05:35:41;;;;;;;10.10;1.80;;;13.90;99.90;;;;;;5110235;28;20142;-58
2023/08/08 05:38:07;;;;;;;6.38;1.95;;;13.90;99.90;;;;;;5109848;28;20139;-58
2023/08/08 05:40:36;;;;;;;5.60;1.73;;;13.90;99.90;;;;;;5110051;28;20035;-57
2023/08/08 05:43:03;;;;;;;6.47;2.15;;;13.90;99.90;;;;;;5110122;28;20036;-59
2023/08/08 05:45:29;;;;;;;7.68;2.35;;;14.00;99.90;;;;;;5113828;28;20101;-57
2023/08/08 05:47:56;;;;;;;4.93;2.35;;;14.00;99.90;;;;;;5113650;28;20032;-58
2023/08/08 05:50:21;;;;;;;3.35;1.55;;;14.00;99.90;;;;;;5113330;28;20360;-58
2023/08/08 05:52:47;;;;;;;8.68;1.58;;;14.10;99.90;;;;;;5111096;28;20425;-57
2023/08/08 05:55:13;;;;;;;4.90;1.63;;;14.10;99.90;;;;;;5110541;28;20052;-59
2023/08/08 05:57:39;;;;;;;8.80;1.92;;;14.20;99.90;;;;;;5095343;28;20055;-58
2023/08/08 06:00:08;;;;;;;5.93;1.80;;;14.20;99.90;;;;;;5093085;28;20140;-59
2023/08/08 06:02:33;;;;;;;4.75;1.50;;;14.30;99.90;;;;;;5109151;28;20047;-57
2023/08/08 06:04:59;;;;;;;6.43;1.48;;;14.30;99.90;;;;;;5113987;28;20032;-58
2023/08/08 06:07:25;;;;;;;6.90;1.83;;;14.30;99.90;;;;;;5098511;28;20046;-59
2023/08/08 06:09:50;;;;;;;6.65;1.90;;;14.40;99.90;;;;;;5114238;28;20035;-58
2023/08/08 06:12:16;;;;;;;6.05;1.50;;;14.40;99.90;;;;;;5111324;28;20116;-58
2023/08/08 06:14:42;;;;;;;7.03;1.90;;;14.40;99.90;;;;;;5111894;28;20043;-58
2023/08/08 06:17:08;;;;;;;6.82;1.73;;;14.50;99.90;;;;;;5114208;28;20067;-58
2023/08/08 06:19:34;;;;;;;3.80;1.40;;;14.60;99.90;;;;;;5110417;28;20040;-55
2023/08/08 06:21:59;;;;;;;8.05;2.03;;;14.60;99.90;;;;;;5093238;28;20044;-58
2023/08/08 06:24:25;;;;;;;5.82;1.70;;;14.70;99.90;;;;;;5112939;28;20067;-56
2023/08/08 06:26:51;;;;;;;5.15;1.63;;;14.80;99.90;;;;;;5111738;28;20497;-58
2023/08/08 06:29:17;;;;;;;6.35;1.63;;;14.90;99.90;;;;;;5110474;28;20051;-57
2023/08/08 06:31:42;;;;;;;6.25;1.40;;;14.90;99.90;;;;;;5091552;28;20039;-59
2023/08/08 06:34:09;;;;;;;5.85;1.40;;;15.00;99.90;;;;;;5107559;28;20090;-58
2023/08/08 06:36:34;;;;;;;9.68;1.60;;;15.10;99.90;;;;;;5110124;28;20035;-59
2023/08/08 06:39:00;;;;;;;4.97;1.73;;;15.10;99.90;;;;;;5107928;28;20703;-58
2023/08/08 06:41:26;;;;;;;8.73;1.40;;;15.20;99.90;;;;;;5091999;28;20055;-58
2023/08/08 06:43:51;;;;;;;10.05;1.92;;;15.30;99.90;;;;;;5087254;28;20039;-59
2023/08/08 06:46:20;;;;;;;5.88;1.58;;;15.40;99.90;;;;;;5090144;28;20035;-58
2023/08/08 06:48:46;;;;;;;9.77;1.50;;;15.40;99.90;;;;;;5109763;28;20032;-58
2023/08/08 06:51:12;;;;;;;7.30;1.40;;;15.50;99.90;;;;;;5107356;28;21049;-57
2023/08/08 06:53:38;;;;;;;8.48;1.50;;;15.60;99.90;;;;;;5108636;28;20071;-58
2023/08/08 06:56:04;;;;;;;6.90;1.40;;;15.70;99.90;;;;;;5107042;28;20069;-58
2023/08/08 06:58:30;;;;;;;8.77;1.45;;;15.80;99.90;;;;;;5108479;28;20047;-58
2023/08/08 07:00:55;;;;;;;5.32;1.40;;;15.80;99.90;;;;;;5108055;28;20043;-56
2023/08/08 07:03:21;;;;;;;8.77;1.65;;;15.90;99.90;;;;;;5107435;28;20493;-57
2023/08/08 07:05:51;;;;;;;6.35;1.50;;;16.00;99.90;;;;;;5105485;28;20035;-57
2023/08/08 07:08:20;;;;;;;8.85;1.88;;;16.00;99.90;;;;;;5106221;28;20036;-58
2023/08/08 07:10:46;;;;;;;5.82;1.70;;;16.10;99.90;;;;;;5104321;28;20042;-57
2023/08/08 07:13:11;;;;;;;8.43;1.75;;;16.20;99.90;;;;;;5105336;28;20036;-58
2023/08/08 07:15:38;;;;;;;9.88;1.80;;;16.20;99.90;;;;;;5105284;28;20040;-58
2023/08/08 07:18:04;;;;;;;5.38;1.73;;;16.30;99.90;;;;;;5103149;28;20854;-59
2023/08/08 07:20:30;;;;;;;3.92;1.20;;;16.40;99.90;;;;;;5085779;28;20044;-57
2023/08/08 07:22:56;;;;;;;10.43;1.63;;;16.40;99.90;;;;;;5105113;28;20039;-59
2023/08/08 07:25:22;;;;;;;7.60;1.30;;;16.50;99.90;;;;;;5086097;28;20143;-58
2023/08/08 07:27:48;;;;;;;6.85;1.67;;;16.60;99.90;;;;;;5106017;28;20063;-55
2023/08/08 07:30:13;;;;;;;3.88;1.20;;;16.70;99.90;;;;;;5102673;28;20039;-57
2023/08/08 07:32:39;;;;;;;9.45;1.10;;;16.80;99.90;;;;;;5102538;28;20043;-57
2023/08/08 07:35:08;;;;;;;4.43;1.30;;;17.00;99.90;;;;;;5103924;28;20064;-59
2023/08/08 07:37:35;;;;;;;6.70;1.17;;;17.00;99.90;;;;;;5103443;28;20074;-59
2023/08/08 07:40:01;;;;;;;6.80;1.40;;;17.00;99.90;;;;;;5102978;28;20071;-57
2023/08/08 07:42:27;;;;;;;5.47;1.38;;;17.00;99.90;;;;;;5104147;28;20075;-59
2023/08/08 07:44:53;;;;;;;6.90;1.45;;;17.00;99.90;;;;;;5101363;28;20039;-58
2023/08/08 07:47:19;;;;;;;8.77;1.63;;;17.00;99.90;;;;;;5102804;28;20546;-59
2023/08/08 07:49:44;;;;;;;9.95;2.08;;;17.00;99.90;;;;;;5082745;28;20046;-59
2023/08/08 07:52:10;;;;;;;7.65;1.23;;;17.10;99.90;;;;;;5090139;28;20055;-57
2023/08/08 07:54:36;;;;;;;5.03;1.30;;;17.10;99.90;;;;;;5100920;28;20385;-59
2023/08/08 07:57:01;;;;;;;8.30;1.75;;;17.10;99.90;;;;;;5102954;28;20044;-59
2023/08/08 07:59:27;;;;;;;8.27;1.27;;;17.10;99.90;;;;;;5107268;28;20032;-59
2023/08/08 08:01:53;;;;;;;7.45;2.10;;;17.10;99.90;;;;;;5107650;28;20123;-59
2023/08/08 08:04:18;;;;;;;4.93;1.10;;;17.20;99.90;;;;;;5105876;28;20497;-58
2023/08/08 08:06:44;;;;;;;5.18;1.38;;;17.20;99.90;;;;;;5086887;28;20032;-58
2023/08/08 08:09:10;;;;;;;3.58;1.08;;;17.30;99.90;;;;;;5104303;28;20465;-59
2023/08/08 08:11:35;;;;;;;6.18;1.33;;;17.40;99.90;;;;;;5106659;28;20050;-57
2023/08/08 08:14:01;;;;;;;10.02;1.42;;;17.40;99.90;;;;;;5106624;28;20050;-59
2023/08/08 08:16:27;;;;;;;5.45;1.40;;;17.40;99.90;;;;;;5077559;28;20062;-59
2023/08/08 08:18:53;;;;;;;5.15;1.30;;;17.40;99.90;;;;;;5089209;28;20433;-59
2023/08/08 08:21:18;;;;;;;2.85;1.23;;;17.40;99.90;;;;;;5105644;28;20055;-59
2023/08/08 08:23:45;;;;;;;5.72;1.30;;;17.40;99.90;;;;;;5109167;28;20149;-58
2023/08/08 08:26:11;;;;;;;4.70;1.20;;;17.50;99.90;;;;;;5106191;28;20070;-59
2023/08/08 08:28:39;;;;;;;9.52;1.92;;;17.50;99.90;;;;;;5108890;28;20039;-56
2023/08/08 08:31:06;;;;;;;6.35;1.33;;;17.50;99.90;;;;;;5108802;28;20039;-59
2023/08/08 08:33:32;;;;;;;5.13;1.30;;;17.40;99.90;;;;;;5106300;28;20044;-56
2023/08/08 08:35:58;;;;;;;5.85;1.30;;;17.40;99.90;;;;;;5108361;28;20048;-58
2023/08/08 08:38:23;;;;;;;5.65;1.50;;;17.40;99.90;;;;;;5106847;28;20043;-59
2023/08/08 08:40:51;;;;;;;7.20;1.50;;;17.40;99.90;;;;;;5106965;28;20482;-59
2023/08/08 08:43:17;;;;;;;7.78;1.48;;;17.40;99.90;;;;;;5108952;28;20496;-57
2023/08/08 08:45:49;;;;;;;5.68;1.60;;;17.30;99.90;;;;;;5106757;28;20146;-55
2023/08/08 08:48:16;;;;;;;7.07;1.30;;;17.20;99.90;;;;;;5107966;27;20032;-58
2023/08/08 08:50:43;;;;;;;5.30;1.10;;;17.20;99.90;;;;;;5109224;28;20463;-59
2023/08/08 08:53:11;;;;;;;5.18;1.48;;;17.30;99.90;;;;;;5104796;28;20059;-58
2023/08/08 08:55:37;;;;;;;6.90;1.30;;;17.40;99.90;;;;;;5104281;28;20096;-59
2023/08/08 08:58:04;;;;;;;6.43;1.33;;;17.60;99.90;;;;;;5108277;28;20071;-59
2023/08/08 09:00:30;;;;;;;4.93;1.27;;;17.60;99.90;;;;;;5106968;28;20096;-55
2023/08/08 09:02:56;;;;;;;5.30;1.35;;;17.60;99.90;;;;;;5108138;28;20119;-59
2023/08/08 09:05:25;;;;;;;7.68;1.48;;;17.60;99.90;;;;;;5107618;28;20047;-58
2023/08/08 09:07:51;;;;;;;6.70;1.27;;;17.80;99.90;;;;;;5106007;28;20562;-58
2023/08/08 09:10:17;;;;;;;5.20;1.20;;;17.90;99.90;;;;;;5106842;28;20060;-58
2023/08/08 09:12:44;;;;;;;8.85;1.63;;;17.90;99.90;;;;;;5107033;28;20490;-56
2023/08/08 09:15:11;;;;;;;5.15;1.20;;;17.80;99.90;;;;;;5106905;28;20094;-58
2023/08/08 09:17:41;;;;;;;3.92;1.00;;;17.80;99.90;;;;;;5090217;28;20127;-59
2023/08/08 09:20:07;;;;;;;5.07;1.02;;;17.80;99.90;;;;;;5107431;28;20070;-58
2023/08/08 09:22:33;;;;;;;7.10;1.30;;;17.90;99.90;;;;;;5109057;28;20099;-58
2023/08/08 09:24:59;;;;;;;4.93;1.45;;;18.10;99.90;;;;;;5074637;28;20064;-59
2023/08/08 09:27:25;;;;;;;8.52;1.20;;;18.20;99.90;;;;;;5106156;28;20420;-59
2023/08/08 09:29:51;;;;;;;5.35;1.30;;;18.40;99.90;;;;;;5089601;28;20039;-59
2023/08/08 09:32:18;;;;;;;4.40;1.20;;;18.50;99.90;;;;;;5106961;28;20044;-59
2023/08/08 09:34:44;;;;;;;5.45;1.50;;;18.60;99.90;;;;;;5106679;28;20065;-57
2023/08/08 09:37:10;;;;;;;2.47;0.98;;;18.60;99.90;;;;;;5108773;28;20051;-56
2023/08/08 09:39:36;;;;;;;4.03;1.05;;;18.70;99.90;;;;;;5107330;28;20044;-59
2023/08/08 09:42:04;;;;;;;8.90;1.45;;;18.70;99.90;;;;;;5107347;28;20048;-59
2023/08/08 09:44:31;;;;;;;10.85;1.60;;;18.80;99.90;;;;;;5105642;28;20510;-59
2023/08/08 09:46:57;;;;;;;5.18;1.17;;;19.00;99.90;;;;;;5104796;28;20051;-59
2023/08/08 09:49:23;;;;;;;6.40;1.45;;;19.10;99.90;;;;;;5089922;28;20043;-58
2023/08/08 09:51:50;;;;;;;5.30;1.02;;;19.30;99.90;;;;;;5107172;28;20094;-59
2023/08/08 09:54:16;;;;;;;5.65;1.10;;;19.20;99.90;;;;;;5109190;28;20040;-58
2023/08/08 09:56:43;;;;;;;3.10;0.90;;;19.20;99.90;;;;;;5110379;28;20063;-60
2023/08/08 09:59:11;;;;;;;12.77;1.63;;;18.90;99.90;;;;;;5111136;28;20055;-59
2023/08/08 10:01:39;;;;;;;4.30;1.40;;;18.70;99.90;;;;;;5114120;28;20043;-57
2023/08/08 10:04:06;;;;;;;6.32;1.08;;;18.40;99.90;;;;;;5115464;28;20027;-59
2023/08/08 10:06:32;;;;;;;5.97;1.25;;;17.90;99.90;;;;;;5114831;28;20027;-59
2023/08/08 10:09:00;;;;;;;4.32;0.95;;;17.60;99.90;;;;;;5116574;28;20067;-59
2023/08/08 10:11:27;;;;;;;3.50;1.20;;;17.20;99.90;;;;;;5115480;28;20048;-59
2023/08/08 10:13:53;;;;;;;7.55;1.48;;;16.90;99.90;;;;;;5094871;28;20048;-59
2023/08/08 10:16:19;;;;;;;2.90;1.10;;;16.80;99.90;;;;;;5115111;28;20036;-59
2023/08/08 10:18:54;;;;;;;5.05;1.20;;;16.70;99.90;;;;;;5113066;28;20043;-59
2023/08/08 10:21:22;;;;;;;9.55;1.60;;;16.70;99.90;;;;;;5113728;28;20046;-57
2023/08/08 10:23:49;;;;;;;5.95;1.80;;;16.80;99.90;;;;;;5114838;28;20063;-55
2023/08/08 10:26:21;;;;;;;5.05;1.17;;;16.90;99.90;;;;;;5113090;28;20048;-59
2023/08/08 10:28:57;;;;;;;4.63;1.30;;;16.90;99.90;;;;;;5114822;28;20039;-57
2023/08/08 10:31:23;;;;;;;5.72;1.50;;;16.90;99.90;;;;;;5116277;28;20035;-58
2023/08/08 10:33:49;;;;;;;6.18;1.40;;;17.00;99.90;;;;;;5114531;28;20038;-60
2023/08/08 10:36:15;;;;;;;6.13;1.52;;;17.30;99.90;;;;;;5114649;28;20044;-58
2023/08/08 10:38:46;;;;;;;3.78;1.10;;;17.60;99.90;;;;;;5112374;28;20031;-59
2023/08/08 10:41:17;;;;;;;8.48;1.10;;;18.00;99.90;;;;;;5094167;28;20062;-59
2023/08/08 10:43:57;;;;;;;9.93;1.60;;;18.30;99.90;;;;;;5112557;28;20106;-57
2023/08/08 10:46:42;;;;;;;3.40;1.20;;;18.70;99.90;;;;;;5114395;28;20028;-59
2023/08/08 10:49:08;;;;;;;3.63;1.10;;;19.00;99.90;;;;;;5112678;28;20040;-58
2023/08/08 10:51:33;;;;;;;5.32;1.10;;;19.20;99.90;;;;;;5110323;28;20059;-59
2023/08/08 10:54:04;;;;;;;4.45;1.20;;;19.40;99.90;;;;;;5109779;28;20174;-59
2023/08/08 10:56:31;;;;;;;6.45;1.13;;;19.60;99.90;;;;;;5092675;28;20065;-58
2023/08/08 10:58:57;;;;;;;6.90;1.30;;;19.60;99.90;;;;;;5110891;28;20070;-60
2023/08/08 11:01:26;;;;;;;4.03;1.10;;;19.60;99.90;;;;;;5113122;28;20075;-59
2023/08/08 11:03:52;;;;;;;2.42;1.05;;;19.70;99.90;;;;;;5110828;28;20083;-60
2023/08/08 11:06:19;;;;;;;3.90;0.95;;;19.80;99.80;;;;;;5109165;28;20096;-59
2023/08/08 11:08:44;;;;;;;4.70;1.23;;;19.70;98.70;;;;;;5108370;28;20135;-59
2023/08/08 11:11:10;;;;;;;5.53;1.27;;;19.60;97.80;;;;;;5108125;28;20133;-59
2023/08/08 11:13:36;;;;;;;5.57;1.10;;;19.60;97.10;;;;;;5109293;28;20055;-59
2023/08/08 11:16:02;;;;;;;7.88;0.98;;;19.60;96.70;;;;;;5108682;28;20039;-60
2023/08/08 11:18:28;;;;;;;6.32;1.00;;;19.70;96.50;;;;;;5108475;28;20056;-58
2023/08/08 11:20:54;;;;;;;5.55;1.10;;;19.60;96.60;;;;;;5090130;28;20050;-59
2023/08/08 11:23:20;;;;;;;3.83;0.90;;;19.70;96.60;;;;;;5106923;28;20063;-59
2023/08/08 11:25:47;;;;;;;4.10;1.15;;;19.60;96.40;;;;;;5110037;28;20059;-59
2023/08/08 11:28:14;;;;;;;5.05;1.58;;;19.40;95.80;;;;;;5108020;28;20060;-60
2023/08/08 11:30:45;;;;;;;4.20;0.90;;;19.50;95.80;;;;;;5108288;28;20040;-59
2023/08/08 11:33:14;;;;;;;4.18;1.17;;;19.50;95.80;;;;;;5092682;28;20042;-58
2023/08/08 11:35:46;;;;;;;6.15;0.98;;;19.60;95.60;;;;;;5106985;28;20096;-59
2023/08/08 11:38:13;;;;;;;6.73;1.30;;;19.60;96.00;;;;;;5109153;28;20137;-59
2023/08/08 11:40:39;;;;;;;4.55;1.20;;;19.70;95.50;;;;;;5094202;28;20075;-59
2023/08/08 11:43:06;;;;;;;4.72;1.30;;;19.90;94.80;;;;;;5113883;28;20032;-59
2023/08/08 11:45:32;;;;;;;6.30;1.08;;;20.10;94.30;;;;;;5111602;28;20047;-58
2023/08/08 11:47:59;;;;;;;4.18;1.00;;;20.30;94.10;;;;;;5112095;28;20077;-59
2023/08/08 11:50:27;;;;;;;7.53;1.10;;;20.20;93.50;;;;;;5113154;28;20046;-59
2023/08/08 11:52:54;;;;;;;3.42;1.40;;;20.00;93.90;;;;;;5092718;28;20051;-56
2023/08/08 11:55:24;;;;;;;6.05;1.60;;;20.00;94.80;;;;;;5112550;28;20044;-57
2023/08/08 11:57:49;;;;;;;6.78;1.30;;;20.40;95.00;;;;;;5097683;28;20420;-59
2023/08/08 12:00:16;;;;;;;2.63;0.80;;;20.70;94.50;;;;;;5114160;27;20115;-60
2023/08/08 12:02:45;;;;;;;7.75;1.38;;;20.90;93.80;;;;;;5111148;28;20048;-59
2023/08/08 12:05:16;;;;;;;4.47;1.17;;;21.00;93.10;;;;;;5110971;28;20040;-60
2023/08/08 12:07:44;;;;;;;6.65;1.10;;;21.00;92.10;;;;;;5110606;28;20040;-57
2023/08/08 12:10:19;;;;;;;4.32;1.00;;;20.80;91.10;;;;;;5108628;28;20584;-59
2023/08/08 12:12:46;;;;;;;6.38;1.10;;;20.50;91.20;;;;;;5090827;28;20074;-59
2023/08/08 12:15:13;;;;;;;7.22;1.23;;;20.20;91.60;;;;;;5111000;28;20100;-60
2023/08/08 12:17:39;;;;;;;5.18;1.10;;;19.90;92.50;;;;;;5109762;28;20050;-58
2023/08/08 12:20:07;;;;;;;6.75;1.40;;;19.60;93.70;;;;;;5109476;28;20040;-57
2023/08/08 12:22:33;;;;;;;5.75;1.42;;;19.40;94.80;;;;;;5110206;28;20111;-58
2023/08/08 12:24:59;;;;;;;4.93;1.20;;;19.50;95.30;;;;;;5090596;28;21412;-59
2023/08/08 12:27:25;;;;;;;6.22;1.40;;;19.60;95.50;;;;;;5109634;28;20070;-59
2023/08/08 12:29:51;;;;;;;4.85;1.13;;;19.60;95.50;;;;;;5108767;28;20035;-59
2023/08/08 12:32:20;;;;;;;6.53;1.13;;;19.50;95.10;;;;;;5090809;28;20031;-56
2023/08/08 12:34:45;;;;;;;5.10;1.20;;;19.40;94.80;;;;;;5107421;28;20052;-59
2023/08/08 12:37:11;;;;;;;4.90;1.33;;;19.20;94.70;;;;;;5108182;28;20046;-59
2023/08/08 12:39:37;;;;;;;6.60;1.17;;;19.10;95.10;;;;;;5107663;28;20533;-59
2023/08/08 12:42:03;;;;;;;6.85;1.20;;;19.10;95.20;;;;;;5106669;28;20035;-58